Terminal Aerodrome Forecast
Issued by NWS

Home | Current Version | Previous Version | Text Only | Print | Product List | Glossary Off
Versions: 1 2 3 4 5 6 7 8 9 10 11 12 13 14

229
FTUS42 KMHX 051140
TAFPGV
TAF
KPGV 051140Z 0512/0612 35015G21KT P6SM DZ BKN020
     FM051500 34015G22KT P6SM SCT020 BKN040
     FM052230 00000KT P6SM SKC
      AMD LTD TO CLD VIS AND WIND=

USA.gov is the U.S. government's official web portal to all federal, state and local government web resources and services.